createdAt,value
2018-10-21T00:01:05.182Z,100136.64
2018-10-21T00:04:10.210Z,100138.30
2018-10-21T00:07:15.280Z,100129.73
2018-10-21T00:10:21.906Z,100128.30
2018-10-21T00:13:26.922Z,100134.28
2018-10-21T00:16:32.137Z,100128.45
2018-10-21T00:19:37.125Z,100129.36
2018-10-21T00:22:42.117Z,100131.91
2018-10-21T00:25:47.178Z,100125.36
2018-10-21T00:28:52.825Z,100135.53
2018-10-21T00:32:00.016Z,100133.52
2018-10-21T00:35:06.379Z,100125.36
2018-10-21T00:38:11.368Z,100116.28
2018-10-21T00:41:16.329Z,100122.46
2018-10-21T00:44:21.322Z,100120.46
2018-10-21T00:47:26.959Z,100112.81
2018-10-21T00:50:32.015Z,100113.34
2018-10-21T00:53:37.013Z,100111.72
2018-10-21T00:56:43.574Z,100110.63
2018-10-21T00:59:48.571Z,100109.52
2018-10-21T01:02:53.581Z,100112.45
2018-10-21T01:05:58.582Z,100112.45
2018-10-21T01:09:10.351Z,100106.09
2018-10-21T01:12:15.426Z,100102.27
2018-10-21T01:15:20.434Z,100095.00
2018-10-21T01:18:25.415Z,100092.11
2018-10-21T01:21:30.466Z,100094.81
2018-10-21T01:24:35.442Z,100089.74
2018-10-21T01:27:41.266Z,100087.38
2018-10-21T01:30:46.261Z,100083.73
2018-10-21T01:33:51.394Z,100081.73
2018-10-21T01:36:56.447Z,100076.83
2018-10-21T01:40:40.612Z,100071.92
2018-10-21T01:43:45.847Z,100070.49
2018-10-21T01:46:50.827Z,100073.73
2018-10-21T01:49:55.786Z,100071.77
2018-10-21T01:53:01.952Z,100066.50
2018-10-21T01:56:06.940Z,100065.94
2018-10-21T01:59:11.939Z,100075.19
2018-10-21T02:02:16.911Z,100074.30
2018-10-21T02:05:22.198Z,100071.92
2018-10-21T02:08:27.158Z,100074.66
2018-10-21T02:11:32.125Z,100062.66
2018-10-21T02:14:37.098Z,100070.84
2018-10-21T02:17:42.222Z,100074.13
2018-10-21T02:20:47.234Z,100071.01
2018-10-21T02:23:52.219Z,100073.38
2018-10-21T02:26:57.303Z,100074.47
2018-10-21T02:30:02.383Z,100070.10
2018-10-21T02:33:07.506Z,100067.02
2018-10-21T02:36:12.489Z,100069.19
2018-10-21T02:39:17.563Z,100069.92
2018-10-21T02:42:22.984Z,100073.19
2018-10-21T02:45:27.996Z,100079.89
2018-10-21T02:48:32.993Z,100084.58
2018-10-21T02:51:38.071Z,100077.32
2018-10-21T02:54:43.995Z,100074.80
2018-10-21T02:57:48.961Z,100084.56
2018-10-21T03:00:54.633Z,100084.77
2018-10-21T03:03:59.797Z,100090.73
2018-10-21T03:07:04.990Z,100097.08
2018-10-21T03:10:09.983Z,100099.44
2018-10-21T03:13:14.941Z,100100.34
2018-10-21T03:16:19.955Z,100099.58
2018-10-21T03:19:28.045Z,100093.77
2018-10-21T03:22:34.254Z,100096.12
2018-10-21T03:25:39.915Z,100093.18
2018-10-21T03:28:53.237Z,100090.98
2018-10-21T03:31:58.628Z,100092.22
2018-10-21T03:35:06.348Z,100096.77
2018-10-21T03:38:11.744Z,100101.84
2018-10-21T03:41:18.729Z,100102.91
2018-10-21T03:44:24.146Z,100099.67
2018-10-21T03:47:29.655Z,100098.77
2018-10-21T03:50:38.932Z,100098.20
2018-10-21T03:53:43.986Z,100102.68
2018-10-21T03:56:48.984Z,100103.58
2018-10-21T03:59:53.959Z,100104.41
2018-10-21T04:02:58.934Z,100104.12
2018-10-21T04:06:05.558Z,100105.72
2018-10-21T04:09:13.257Z,100109.73
2018-10-21T04:12:18.311Z,100105.69
2018-10-21T04:15:23.326Z,100105.14
2018-10-21T04:18:28.317Z,100100.77
2018-10-21T04:21:33.449Z,100101.05
2018-10-21T04:24:38.429Z,100105.39
2018-10-21T04:27:43.443Z,100103.06
2018-10-21T04:30:48.477Z,100097.58
2018-10-21T04:33:53.492Z,100100.81
2018-10-21T04:37:10.008Z,100100.81
2018-10-21T04:40:19.962Z,100096.27
2018-10-21T04:43:24.990Z,100097.53
2018-10-21T04:46:30.004Z,100095.52
2018-10-21T04:49:34.952Z,100084.97
2018-10-21T04:52:39.942Z,100076.08
2018-10-21T04:55:44.968Z,100070.64
2018-10-21T04:58:49.952Z,100070.27
2018-10-21T05:01:54.918Z,100063.56
2018-10-21T05:05:00.095Z,100063.72
2018-10-21T05:08:06.836Z,100059.70
2018-10-21T05:14:58.571Z,100058.50
2018-10-21T05:18:03.966Z,100051.80
2018-10-21T05:21:08.929Z,100050.37
2018-10-21T05:24:14.030Z,100043.34
2018-10-21T05:27:18.990Z,100047.31
2018-10-21T05:30:23.952Z,100047.09
2018-10-21T05:33:28.920Z,100049.67
2018-10-21T05:36:33.882Z,100054.02
2018-10-21T05:39:38.850Z,100057.65
2018-10-21T05:42:44.377Z,100052.42
2018-10-21T05:45:49.345Z,100050.42
2018-10-21T05:48:54.305Z,100053.31
2018-10-21T05:51:59.281Z,100051.52
2018-10-21T05:55:04.589Z,100056.23
2018-10-21T05:58:09.544Z,100060.56
2018-10-21T06:01:14.497Z,100055.16
2018-10-21T06:04:19.485Z,100053.36
2018-10-21T06:07:24.493Z,100060.03
2018-10-21T06:10:29.598Z,100072.51
2018-10-21T06:13:34.560Z,100062.72
2018-10-21T06:16:49.554Z,100072.88
2018-10-21T06:19:58.005Z,100071.45
2018-10-21T06:23:03.029Z,100068.38
2018-10-21T06:26:08.178Z,100074.34
2018-10-21T06:29:13.207Z,100074.47
2018-10-21T06:32:18.169Z,100068.70
2018-10-21T06:35:23.163Z,100075.25
2018-10-21T06:38:28.193Z,100077.46
2018-10-21T06:41:35.115Z,100078.41
2018-10-21T06:44:40.110Z,100082.26
2018-10-21T06:47:45.116Z,100089.34
2018-10-21T06:50:50.218Z,100085.95
2018-10-21T06:53:55.258Z,100095.03
2018-10-21T06:57:00.340Z,100103.39
2018-10-21T07:00:06.792Z,100107.44
2018-10-21T07:03:11.779Z,100110.55
2018-10-21T07:06:18.906Z,100114.36
2018-10-21T07:09:23.941Z,100121.48
2018-10-21T07:12:28.949Z,100122.22
2018-10-21T07:15:34.107Z,100122.99
2018-10-21T07:18:41.922Z,100123.20
2018-10-21T07:21:46.965Z,100115.81
2018-10-21T07:24:53.128Z,100113.70
2018-10-21T07:27:58.177Z,100114.09
2018-10-21T07:31:03.366Z,100112.50
2018-10-21T07:34:09.969Z,100114.17
2018-10-21T07:37:15.109Z,100112.60
2018-10-21T07:40:20.276Z,100110.45
2018-10-21T07:43:25.301Z,100108.10
2018-10-21T07:46:30.291Z,100108.48
2018-10-21T07:49:35.370Z,100113.92
2018-10-21T07:52:40.353Z,100112.99
2018-10-21T07:55:45.407Z,100114.59
2018-10-21T07:58:50.379Z,100118.72
2018-10-21T08:01:55.343Z,100120.50
2018-10-21T08:05:00.334Z,100116.09
2018-10-21T08:08:16.347Z,100112.30
2018-10-21T08:11:21.367Z,100113.42
2018-10-21T08:14:26.530Z,100110.28
2018-10-21T08:17:31.484Z,100105.28
2018-10-21T08:23:48.721Z,100107.77
2018-10-21T08:26:55.401Z,100107.24
2018-10-21T08:30:00.487Z,100098.75
2018-10-21T08:33:06.041Z,100087.69
2018-10-21T08:36:11.062Z,100088.22
2018-10-21T08:39:16.055Z,100084.13
2018-10-21T08:42:21.027Z,100085.88
2018-10-21T08:45:26.055Z,100084.19
2018-10-21T08:48:31.050Z,100081.52
2018-10-21T08:51:36.268Z,100076.48
2018-10-21T08:54:41.241Z,100077.45
2018-10-21T08:57:46.261Z,100074.81
2018-10-21T09:00:51.291Z,100078.15
2018-10-21T09:03:56.330Z,100073.40
2018-10-21T09:07:01.608Z,100077.30
2018-10-21T09:10:07.914Z,100072.77
2018-10-21T09:13:13.007Z,100069.23
2018-10-21T09:16:18.182Z,100069.98
2018-10-21T09:19:23.105Z,100066.70
2018-10-21T09:22:28.054Z,100064.91
2018-10-21T09:25:33.025Z,100068.05
2018-10-21T09:28:38.018Z,100070.13
2018-10-21T09:31:42.974Z,100069.27
2018-10-21T09:34:54.783Z,100061.31
2018-10-21T09:37:59.784Z,100058.05
2018-10-21T09:41:04.918Z,100051.20
2018-10-21T09:44:11.802Z,100051.06
2018-10-21T09:47:16.761Z,100048.09
2018-10-21T09:50:21.810Z,100043.81
2018-10-21T09:53:26.773Z,100044.79
2018-10-21T09:56:31.795Z,100041.48
2018-10-21T09:59:43.550Z,100036.63
2018-10-21T10:02:54.243Z,100040.27
2018-10-21T10:05:59.222Z,100035.11
2018-10-21T10:09:07.168Z,100029.09
2018-10-21T10:12:18.934Z,100026.91
2018-10-21T10:15:24.090Z,100022.25
2018-10-21T10:18:29.061Z,100029.73
2018-10-21T10:21:34.573Z,100013.77
2018-10-21T10:24:39.594Z,100011.82
2018-10-21T10:27:44.601Z,100007.20
2018-10-21T10:30:49.609Z,100008.14
2018-10-21T10:33:54.636Z,100003.14
2018-10-21T10:36:59.619Z,100001.42
2018-10-21T10:40:06.025Z,99996.70
2018-10-21T10:43:11.036Z,99989.66
2018-10-21T10:46:16.037Z,99996.19
2018-10-21T10:49:20.965Z,99979.84
2018-10-21T10:52:26.704Z,99980.92
2018-10-21T10:55:37.539Z,99964.42
2018-10-21T10:58:42.516Z,99963.05
2018-10-21T11:01:47.488Z,99965.39
2018-10-21T11:04:54.227Z,99962.70
2018-10-21T11:07:59.685Z,99956.68
2018-10-21T11:11:04.899Z,99955.81
2018-10-21T11:14:11.451Z,99941.59
2018-10-21T11:17:16.505Z,99946.77
2018-10-21T11:20:23.622Z,99937.94
2018-10-21T11:23:30.676Z,99928.41
2018-10-21T11:26:35.693Z,99922.63
2018-10-21T11:29:40.724Z,99919.34
2018-10-21T11:32:45.917Z,99906.09
2018-10-21T11:35:51.035Z,99905.52
2018-10-21T11:38:56.379Z,99910.13
2018-10-21T11:42:01.391Z,99905.52
2018-10-21T11:45:06.613Z,99902.52
2018-10-21T11:48:11.621Z,99895.80
2018-10-21T11:51:16.639Z,99896.36
2018-10-21T11:54:21.643Z,99895.01
2018-10-21T11:57:26.751Z,99885.13
2018-10-21T12:00:31.824Z,99887.63
2018-10-21T12:03:36.958Z,99887.56
2018-10-21T12:06:42.018Z,99881.81
2018-10-21T12:09:48.531Z,99876.52
2018-10-21T12:14:57.173Z,99873.77
2018-10-21T12:18:02.230Z,99871.44
2018-10-21T12:21:07.297Z,99871.06
2018-10-21T12:24:12.393Z,99864.49
2018-10-21T12:27:17.447Z,99860.57
2018-10-21T12:30:22.468Z,99859.65
2018-10-21T12:33:27.619Z,99855.05
2018-10-21T12:36:32.654Z,99850.19
2018-10-21T12:39:38.064Z,99847.38
2018-10-21T12:42:43.132Z,99860.48
2018-10-21T12:45:48.430Z,99862.33
2018-10-21T12:48:55.793Z,99859.20
2018-10-21T12:52:00.803Z,99848.24
2018-10-21T12:55:07.044Z,99847.02
2018-10-21T12:58:12.152Z,99842.72
2018-10-21T13:01:17.170Z,99842.16
2018-10-21T13:04:22.941Z,99833.63
2018-10-21T13:07:27.992Z,99832.87
2018-10-21T13:10:33.031Z,99828.11
2018-10-21T13:13:38.107Z,99833.48
2018-10-21T13:16:43.136Z,99828.30
2018-10-21T13:19:48.242Z,99826.58
2018-10-21T13:22:53.264Z,99834.36
2018-10-21T13:25:58.260Z,99831.16
2018-10-21T13:29:03.315Z,99828.11
2018-10-21T13:32:08.362Z,99821.79
2018-10-21T13:35:13.378Z,99821.91
2018-10-21T13:38:18.442Z,99820.19
2018-10-21T13:41:26.773Z,99815.11
2018-10-21T13:44:31.788Z,99817.88
2018-10-21T13:47:36.796Z,99811.53
2018-10-21T13:50:43.443Z,99817.66
2018-10-21T13:53:48.430Z,99810.13
2018-10-21T13:57:06.721Z,99800.72
2018-10-21T14:00:11.913Z,99791.23
2018-10-21T14:03:16.967Z,99785.83
2018-10-21T14:06:21.999Z,99782.73
2018-10-21T14:09:27.017Z,99778.84
2018-10-21T14:12:32.130Z,99777.84
2018-10-21T14:15:37.132Z,99771.34
2018-10-21T14:18:42.320Z,99783.75
2018-10-21T14:21:47.267Z,99779.46
2018-10-21T14:24:52.306Z,99771.80
2018-10-21T14:27:57.459Z,99784.19
2018-10-21T14:31:02.974Z,99778.98
2018-10-21T14:34:07.828Z,99778.32
2018-10-21T14:37:13.161Z,99776.72
2018-10-21T14:40:18.153Z,99775.50
2018-10-21T14:43:23.155Z,99775.71
2018-10-21T14:46:28.142Z,99781.88
2018-10-21T14:49:33.874Z,99777.28
2018-10-21T14:52:40.617Z,99772.12
2018-10-21T14:55:47.609Z,99765.52
2018-10-21T14:59:11.391Z,99761.11
2018-10-21T15:02:16.539Z,99754.98
2018-10-21T15:05:21.446Z,99756.05
2018-10-21T15:08:26.490Z,99754.41
2018-10-21T15:11:31.498Z,99762.56
2018-10-21T15:14:36.600Z,99756.12
2018-10-21T15:17:43.148Z,99758.10
2018-10-21T15:20:48.173Z,99755.11
2018-10-21T15:23:53.177Z,99757.06
2018-10-21T15:26:58.466Z,99754.28
2018-10-21T15:30:04.303Z,99752.50
2018-10-21T15:33:09.222Z,99750.71
2018-10-21T15:36:14.469Z,99746.22
2018-10-21T15:39:19.780Z,99748.31
2018-10-21T15:42:24.964Z,99743.66
2018-10-21T15:45:29.952Z,99742.24
2018-10-21T15:48:35.456Z,99746.16
2018-10-21T15:51:40.529Z,99748.27
2018-10-21T15:54:45.884Z,99746.11
2018-10-21T15:57:50.969Z,99751.47
2018-10-21T16:00:55.957Z,99751.31
2018-10-21T16:04:01.057Z,99755.84
2018-10-21T16:07:06.220Z,99756.77
2018-10-21T16:10:11.289Z,99766.73
2018-10-21T16:13:16.262Z,99756.11
2018-10-21T16:16:21.342Z,99760.21
2018-10-21T16:19:26.219Z,99772.48
2018-10-21T16:22:31.189Z,99776.05
2018-10-21T16:25:36.329Z,99778.91
2018-10-21T16:28:41.254Z,99784.35
2018-10-21T16:31:46.290Z,99784.09
2018-10-21T16:34:51.223Z,99779.19
2018-10-21T16:41:29.362Z,99783.77
2018-10-21T16:44:34.533Z,99781.91
2018-10-21T16:47:39.984Z,99792.92
2018-10-21T16:50:45.025Z,99795.72
2018-10-21T16:53:49.947Z,99792.83
2018-10-21T16:56:54.941Z,99791.76
2018-10-21T16:59:59.925Z,99794.23
2018-10-21T17:03:05.338Z,99799.33
2018-10-21T17:06:10.265Z,99803.88
2018-10-21T17:09:15.256Z,99802.94
2018-10-21T17:12:20.490Z,99799.14
2018-10-21T17:15:25.608Z,99804.69
2018-10-21T17:18:30.595Z,99803.19
2018-10-21T17:21:35.570Z,99802.41
2018-10-21T17:24:40.630Z,99801.91
2018-10-21T17:27:45.622Z,99799.81
2018-10-21T17:30:50.597Z,99805.77
2018-10-21T17:33:55.578Z,99806.78
2018-10-21T17:37:00.616Z,99813.49
2018-10-21T17:40:06.777Z,99812.55
2018-10-21T17:43:11.917Z,99813.11
2018-10-21T17:46:16.902Z,99811.62
2018-10-21T17:49:21.855Z,99807.12
2018-10-21T17:52:26.935Z,99814.81
2018-10-21T17:55:32.008Z,99808.96
2018-10-21T17:58:37.077Z,99820.27
2018-10-21T18:01:56.166Z,99815.31
2018-10-21T18:05:01.648Z,99818.86
2018-10-21T18:08:06.761Z,99819.02
2018-10-21T18:11:11.815Z,99821.06
2018-10-21T18:14:16.881Z,99814.87
2018-10-21T18:17:22.245Z,99809.67
2018-10-21T18:20:27.234Z,99811.10
2018-10-21T18:23:32.299Z,99805.50
2018-10-21T18:26:37.570Z,99811.23
2018-10-21T18:29:42.558Z,99801.83
2018-10-21T18:32:47.671Z,99803.84
2018-10-21T18:35:52.714Z,99802.70
2018-10-21T18:38:57.805Z,99806.76
2018-10-21T18:42:03.045Z,99806.72
2018-10-21T18:45:10.018Z,99814.14
2018-10-21T18:48:15.108Z,99814.48
2018-10-21T18:51:20.428Z,99809.58
2018-10-21T18:54:25.471Z,99810.91
2018-10-21T18:57:30.753Z,99812.47
2018-10-21T19:00:35.781Z,99813.79
2018-10-21T19:03:41.607Z,99816.33
2018-10-21T19:06:46.850Z,99814.79
2018-10-21T19:09:51.860Z,99811.55
2018-10-21T19:13:00.054Z,99811.80
2018-10-21T19:16:02.244Z,99808.97
2018-10-21T19:19:07.311Z,99810.33
2018-10-21T19:22:12.460Z,99814.47
2018-10-21T19:25:17.600Z,99812.92
2018-10-21T19:28:22.578Z,99819.55
2018-10-21T19:31:27.626Z,99814.51
2018-10-21T19:34:33.042Z,99819.89
2018-10-21T19:37:39.072Z,99819.23
2018-10-21T19:40:44.718Z,99823.36
2018-10-21T19:43:49.967Z,99820.41
2018-10-21T19:46:54.980Z,99823.36
2018-10-21T19:50:00.082Z,99825.11
2018-10-21T19:53:05.200Z,99826.83
2018-10-21T19:56:10.200Z,99829.06
2018-10-21T19:59:15.477Z,99828.74
2018-10-21T20:02:20.544Z,99830.63
2018-10-21T20:05:25.438Z,99834.66
2018-10-21T20:08:30.441Z,99838.69
2018-10-21T20:11:35.762Z,99846.74
2018-10-21T20:14:40.926Z,99843.75
2018-10-21T20:17:45.930Z,99856.53
2018-10-21T20:20:50.936Z,99855.21
2018-10-21T20:23:55.935Z,99855.27
2018-10-21T20:27:00.926Z,99852.16
2018-10-21T20:30:07.442Z,99856.53
2018-10-21T20:33:12.465Z,99855.98
2018-10-21T20:36:17.410Z,99850.94
2018-10-21T20:39:22.406Z,99850.77
2018-10-21T20:42:34.134Z,99849.36
2018-10-21T20:45:39.142Z,99850.70
2018-10-21T20:48:44.149Z,99848.34
2018-10-21T20:51:49.203Z,99847.07
2018-10-21T20:54:54.281Z,99852.01
2018-10-21T20:57:59.458Z,99852.83
2018-10-21T21:01:04.881Z,99851.71
2018-10-21T21:04:10.079Z,99861.38
2018-10-21T21:07:15.131Z,99860.50
2018-10-21T21:10:20.209Z,99859.98
2018-10-21T21:14:57.259Z,99861.58
2018-10-21T21:18:02.654Z,99863.41
2018-10-21T21:21:07.635Z,99855.02
2018-10-21T21:24:12.713Z,99851.95
2018-10-21T21:27:17.666Z,99853.61
2018-10-21T21:30:22.671Z,99853.08
2018-10-21T21:33:27.651Z,99850.31
2018-10-21T21:36:34.417Z,99851.24
2018-10-21T21:39:42.697Z,99846.72
2018-10-21T21:42:47.677Z,99849.78
2018-10-21T21:45:52.652Z,99849.98
2018-10-21T21:48:57.648Z,99852.91
2018-10-21T21:52:02.639Z,99846.96
2018-10-21T21:55:07.679Z,99844.80
2018-10-21T21:58:12.797Z,99844.80
2018-10-21T22:01:25.393Z,99845.12
2018-10-21T22:04:30.409Z,99846.96
2018-10-21T22:07:36.008Z,99848.23
2018-10-21T22:10:41.046Z,99842.06
2018-10-21T22:13:46.065Z,99844.43
2018-10-21T22:16:51.075Z,99846.64
2018-10-21T22:19:56.121Z,99841.41
2018-10-21T22:23:01.489Z,99843.05
2018-10-21T22:26:06.554Z,99844.48
2018-10-21T22:29:11.550Z,99843.39
2018-10-21T22:32:16.571Z,99835.61
2018-10-21T22:35:21.592Z,99835.28
2018-10-21T22:38:37.739Z,99841.31
2018-10-21T22:41:42.738Z,99834.77
2018-10-21T22:44:47.705Z,99829.89
2018-10-21T22:47:52.718Z,99834.62
2018-10-21T22:50:57.733Z,99838.10
2018-10-21T22:54:03.637Z,99834.47
2018-10-21T22:57:14.231Z,99840.87
2018-10-21T23:00:19.338Z,99841.25
2018-10-21T23:03:24.354Z,99837.77
2018-10-21T23:06:29.370Z,99835.97
2018-10-21T23:09:34.369Z,99834.33
2018-10-21T23:12:41.215Z,99828.52
2018-10-21T23:15:46.233Z,99834.17
2018-10-21T23:18:58.390Z,99832.53
2018-10-21T23:22:04.336Z,99834.55
2018-10-21T23:25:09.663Z,99838.21
2018-10-21T23:28:15.114Z,99836.38
2018-10-21T23:31:21.194Z,99831.52
2018-10-21T23:34:26.761Z,99833.87
2018-10-21T23:37:31.755Z,99835.89
2018-10-21T23:40:36.741Z,99834.80
2018-10-21T23:43:41.714Z,99838.46
2018-10-21T23:46:55.571Z,99835.77
2018-10-21T23:50:00.558Z,99833.96
2018-10-21T23:53:05.542Z,99835.57
2018-10-21T23:56:18.473Z,99839.57
2018-10-21T23:59:23.463Z,99840.69
